Central City, PA (15926)

6:10 AM EST on January 23, 2017 (GMT -0500)
SHADE | | Change Station

Elev 2195 ft 40.12 °N, 78.81 °W | Updated 23 seconds ago

Rain
Rain
40.9 °F
Feels Like 38 °F
N
4.0
Wind Variable Wind from NNW

Today
High -- | Low -- °F
--% Chance of Precip.
Yesterday
High -- | Low -- °F
Precip. -- in
Pressure 29.52 in
Visibility 4.0 miles
Clouds Mostly Cloudy 600 ft
Overcast 1200 ft
Windchill 38 °F
Dew Point 39 °F
Humidity 93%
Rainfall 0.15 in
Snow Depth Not available.
7:31 AM 5:23 PM
Waning Crescent, 19% visible
METAR KJST 231054Z AUTO 09016G24KT 4SM -RA BR BKN006 OVC012 06/05 A2950 RMK AO2 PK WND 09027/0957 CIG 003V010 SLP997 P0001 T00560050 TSNO
Pressure 29.52 in
Visibility 4.0 miles
Clouds Mostly Cloudy 600 ft
Overcast 1200 ft
Windchill 38 °F
Dew Point 39 °F
Humidity 93%
Rainfall 0.15 in
Snow Depth Not available.
7:31 AM 5:23 PM
Waning Crescent, 19% visible
METAR KJST 231054Z AUTO 09016G24KT 4SM -RA BR BKN006 OVC012 06/05 A2950 RMK AO2 PK WND 09027/0957 CIG 003V010 SLP997 P0001 T00560050 TSNO

Get Your Daily Forecast Email!

Thanks for signing up!

Be on the lookout for a verification email in your inbox.

You'll start receiving the daily forecast at 8 AM.

×

10-Day Weather Forecast

Almanac

Astronomy

Jan. 23, 2017 Rise Set
Actual Time
Civil Twilight
Nautical Twilight
Astronomical Twilight
Moon
Length of Visible Light
Length of Day
Tomorrow will be .
, % of the Moon is Illuminated

Today's Extremes

State Highs State Lows

Community

WunderPhotos

Upload Photos

1,962,540 photos uploaded!

WunderBlog® & News

Nearby

Air Quality

  Air Quality AQ Index Pollutant
Not available.

Snow Depth

Station Depth Elevation

Earthquake Activity

City Distance Mag. Time & Date
Minimum magnitude displayed is 2.5.

Coastal Water Temperatures

Place Temperature

Stations

Nearby Weather Stations

Station Location Temp. Windchill Dew Point Humidity Wind Precip. Elev Updated Type
                   

Watches & Warnings

There are currently no watches in effect.